sensor_id;sensor_type;location;lat;lon;timestamp;pressure;altitude;pressure_sealevel;temperature;humidity
62948;BME280;51940;52.126;-0.994;2022-10-26T00:01:13;99625.70;;;13.26;100.00
62948;BME280;51940;52.126;-0.994;2022-10-26T00:03:40;99621.48;;;13.25;100.00
62948;BME280;51940;52.126;-0.994;2022-10-26T00:06:09;99615.71;;;13.26;100.00
62948;BME280;51940;52.126;-0.994;2022-10-26T00:08:35;99607.30;;;13.26;100.00
62948;BME280;51940;52.126;-0.994;2022-10-26T00:11:01;99604.90;;;13.27;100.00
62948;BME280;51940;52.126;-0.994;2022-10-26T00:13:27;99599.90;;;13.27;100.00
62948;BME280;51940;52.126;-0.994;2022-10-26T00:15:53;99599.48;;;13.28;100.00
62948;BME280;51940;52.126;-0.994;2022-10-26T00:18:18;99595.13;;;13.29;100.00
62948;BME280;51940;52.126;-0.994;2022-10-26T00:20:44;99594.89;;;13.30;100.00
62948;BME280;51940;52.126;-0.994;2022-10-26T00:23:09;99587.17;;;13.31;100.00
62948;BME280;51940;52.126;-0.994;2022-10-26T00:25:34;99586.05;;;13.32;100.00
62948;BME280;51940;52.126;-0.994;2022-10-26T00:28:00;99583.69;;;13.32;100.00
62948;BME280;51940;52.126;-0.994;2022-10-26T00:30:25;99581.86;;;13.33;100.00
62948;BME280;51940;52.126;-0.994;2022-10-26T00:32:51;99581.30;;;13.34;100.00
62948;BME280;51940;52.126;-0.994;2022-10-26T00:35:16;99576.39;;;13.35;100.00
62948;BME280;51940;52.126;-0.994;2022-10-26T00:37:42;99579.94;;;13.36;100.00
62948;BME280;51940;52.126;-0.994;2022-10-26T00:40:07;99576.86;;;13.37;100.00
62948;BME280;51940;52.126;-0.994;2022-10-26T00:42:33;99573.36;;;13.38;100.00
62948;BME280;51940;52.126;-0.994;2022-10-26T00:45:03;99570.95;;;13.40;100.00
62948;BME280;51940;52.126;-0.994;2022-10-26T00:48:10;99566.77;;;13.41;100.00
62948;BME280;51940;52.126;-0.994;2022-10-26T00:50:38;99565.95;;;13.43;100.00
62948;BME280;51940;52.126;-0.994;2022-10-26T00:53:05;99562.98;;;13.46;100.00
62948;BME280;51940;52.126;-0.994;2022-10-26T00:55:34;99562.50;;;13.48;100.00
62948;BME280;51940;52.126;-0.994;2022-10-26T00:58:04;99563.46;;;13.50;100.00
62948;BME280;51940;52.126;-0.994;2022-10-26T01:00:30;99562.83;;;13.52;100.00
62948;BME280;51940;52.126;-0.994;2022-10-26T01:02:57;99559.73;;;13.53;100.00
62948;BME280;51940;52.126;-0.994;2022-10-26T01:05:25;99557.69;;;13.54;100.00
62948;BME280;51940;52.126;-0.994;2022-10-26T01:07:52;99556.38;;;13.56;100.00
62948;BME280;51940;52.126;-0.994;2022-10-26T01:10:18;99559.14;;;13.58;100.00
62948;BME280;51940;52.126;-0.994;2022-10-26T01:12:44;99552.48;;;13.59;100.00
62948;BME280;51940;52.126;-0.994;2022-10-26T01:15:10;99549.41;;;13.60;100.00
62948;BME280;51940;52.126;-0.994;2022-10-26T01:17:56;99548.63;;;13.61;100.00
62948;BME280;51940;52.126;-0.994;2022-10-26T01:32:13;99556.00;;;13.67;100.00
62948;BME280;51940;52.126;-0.994;2022-10-26T01:34:45;99553.46;;;13.68;100.00
62948;BME280;51940;52.126;-0.994;2022-10-26T01:37:22;99550.90;;;13.69;100.00
62948;BME280;51940;52.126;-0.994;2022-10-26T01:39:57;99549.96;;;13.70;100.00
62948;BME280;51940;52.126;-0.994;2022-10-26T01:42:25;99557.45;;;13.71;100.00
62948;BME280;51940;52.126;-0.994;2022-10-26T01:44:55;99549.16;;;13.71;100.00
62948;BME280;51940;52.126;-0.994;2022-10-26T01:47:25;99545.38;;;13.72;100.00
62948;BME280;51940;52.126;-0.994;2022-10-26T01:49:54;99544.45;;;13.72;100.00
62948;BME280;51940;52.126;-0.994;2022-10-26T01:52:21;99539.06;;;13.72;100.00
62948;BME280;51940;52.126;-0.994;2022-10-26T01:54:47;99536.90;;;13.73;100.00
62948;BME280;51940;52.126;-0.994;2022-10-26T01:57:16;99537.91;;;13.74;100.00
62948;BME280;51940;52.126;-0.994;2022-10-26T02:07:58;99515.11;;;13.74;100.00
62948;BME280;51940;52.126;-0.994;2022-10-26T02:10:52;99518.33;;;13.75;100.00
62948;BME280;51940;52.126;-0.994;2022-10-26T02:16:21;99497.91;;;13.74;100.00
62948;BME280;51940;52.126;-0.994;2022-10-26T02:21:42;99483.91;;;13.75;100.00
62948;BME280;51940;52.126;-0.994;2022-10-26T02:24:11;99482.52;;;13.74;100.00
62948;BME280;51940;52.126;-0.994;2022-10-26T02:26:40;99481.15;;;13.73;100.00
62948;BME280;51940;52.126;-0.994;2022-10-26T02:29:08;99483.86;;;13.73;100.00
62948;BME280;51940;52.126;-0.994;2022-10-26T02:31:36;99490.66;;;13.73;100.00
62948;BME280;51940;52.126;-0.994;2022-10-26T02:34:06;99497.48;;;13.73;100.00
62948;BME280;51940;52.126;-0.994;2022-10-26T02:36:36;99496.23;;;13.72;100.00
62948;BME280;51940;52.126;-0.994;2022-10-26T02:39:04;99486.38;;;13.73;100.00
62948;BME280;51940;52.126;-0.994;2022-10-26T02:41:32;99493.73;;;13.72;100.00
62948;BME280;51940;52.126;-0.994;2022-10-26T02:44:41;99498.58;;;13.72;100.00
62948;BME280;51940;52.126;-0.994;2022-10-26T02:47:08;99494.41;;;13.73;100.00
62948;BME280;51940;52.126;-0.994;2022-10-26T02:49:34;99491.13;;;13.74;100.00
62948;BME280;51940;52.126;-0.994;2022-10-26T02:57:13;99483.09;;;13.77;100.00
62948;BME280;51940;52.126;-0.994;2022-10-26T02:59:42;99479.25;;;13.78;100.00
62948;BME280;51940;52.126;-0.994;2022-10-26T03:02:10;99479.48;;;13.81;100.00
62948;BME280;51940;52.126;-0.994;2022-10-26T03:04:36;99477.42;;;13.82;100.00
62948;BME280;51940;52.126;-0.994;2022-10-26T03:07:01;99475.39;;;13.84;100.00
62948;BME280;51940;52.126;-0.994;2022-10-26T03:09:27;99471.02;;;13.86;100.00
62948;BME280;51940;52.126;-0.994;2022-10-26T03:11:53;99461.33;;;13.86;100.00
62948;BME280;51940;52.126;-0.994;2022-10-26T03:14:18;99458.27;;;13.86;100.00
62948;BME280;51940;52.126;-0.994;2022-10-26T03:16:44;99457.80;;;13.84;100.00
62948;BME280;51940;52.126;-0.994;2022-10-26T03:19:09;99459.98;;;13.83;100.00
62948;BME280;51940;52.126;-0.994;2022-10-26T03:21:35;99461.45;;;13.83;100.00
62948;BME280;51940;52.126;-0.994;2022-10-26T03:24:00;99460.47;;;13.81;100.00
62948;BME280;51940;52.126;-0.994;2022-10-26T03:26:26;99460.23;;;13.79;100.00
62948;BME280;51940;52.126;-0.994;2022-10-26T03:28:51;99459.02;;;13.78;100.00
62948;BME280;51940;52.126;-0.994;2022-10-26T03:31:17;99457.41;;;13.78;100.00
62948;BME280;51940;52.126;-0.994;2022-10-26T03:33:42;99460.63;;;13.78;100.00
62948;BME280;51940;52.126;-0.994;2022-10-26T03:36:08;99462.72;;;13.79;100.00
62948;BME280;51940;52.126;-0.994;2022-10-26T03:38:33;99466.80;;;13.80;100.00
62948;BME280;51940;52.126;-0.994;2022-10-26T03:40:59;99474.77;;;13.82;100.00
62948;BME280;51940;52.126;-0.994;2022-10-26T03:43:25;99477.58;;;13.83;100.00
62948;BME280;51940;52.126;-0.994;2022-10-26T03:45:50;99467.80;;;13.85;100.00
62948;BME280;51940;52.126;-0.994;2022-10-26T03:48:16;99468.23;;;13.87;100.00
62948;BME280;51940;52.126;-0.994;2022-10-26T03:50:41;99470.48;;;13.89;100.00
62948;BME280;51940;52.126;-0.994;2022-10-26T03:53:07;99464.54;;;13.89;100.00
62948;BME280;51940;52.126;-0.994;2022-10-26T03:55:32;99468.36;;;13.91;100.00
62948;BME280;51940;52.126;-0.994;2022-10-26T03:57:58;99470.44;;;13.93;100.00
62948;BME280;51940;52.126;-0.994;2022-10-26T04:00:23;99474.77;;;13.96;100.00
62948;BME280;51940;52.126;-0.994;2022-10-26T04:02:54;99475.01;;;13.98;100.00
62948;BME280;51940;52.126;-0.994;2022-10-26T04:05:20;99472.05;;;13.99;100.00
62948;BME280;51940;52.126;-0.994;2022-10-26T04:07:53;99469.68;;;14.00;100.00
62948;BME280;51940;52.126;-0.994;2022-10-26T04:10:19;99474.31;;;14.01;100.00
62948;BME280;51940;52.126;-0.994;2022-10-26T04:12:45;99473.83;;;14.00;100.00
62948;BME280;51940;52.126;-0.994;2022-10-26T04:15:10;99478.28;;;14.00;100.00
62948;BME280;51940;52.126;-0.994;2022-10-26T04:17:36;99487.05;;;14.00;100.00
62948;BME280;51940;52.126;-0.994;2022-10-26T04:20:02;99486.14;;;14.01;100.00
62948;BME280;51940;52.126;-0.994;2022-10-26T04:22:27;99490.08;;;14.01;100.00
62948;BME280;51940;52.126;-0.994;2022-10-26T04:24:53;99490.77;;;14.02;100.00
62948;BME280;51940;52.126;-0.994;2022-10-26T04:27:18;99492.70;;;14.03;100.00
62948;BME280;51940;52.126;-0.994;2022-10-26T04:29:44;99487.45;;;14.03;100.00
62948;BME280;51940;52.126;-0.994;2022-10-26T04:32:09;99490.12;;;14.04;100.00
62948;BME280;51940;52.126;-0.994;2022-10-26T04:34:35;99498.89;;;14.04;100.00
62948;BME280;51940;52.126;-0.994;2022-10-26T04:37:00;99502.84;;;14.04;100.00
62948;BME280;51940;52.126;-0.994;2022-10-26T04:39:25;99505.70;;;14.04;100.00
62948;BME280;51940;52.126;-0.994;2022-10-26T04:41:52;99504.62;;;14.04;100.00
62948;BME280;51940;52.126;-0.994;2022-10-26T04:44:18;99497.27;;;14.04;100.00
62948;BME280;51940;52.126;-0.994;2022-10-26T04:46:43;99493.98;;;14.02;100.00
62948;BME280;51940;52.126;-0.994;2022-10-26T04:49:09;99493.23;;;13.99;100.00
62948;BME280;51940;52.126;-0.994;2022-10-26T04:51:34;99489.73;;;13.94;100.00
62948;BME280;51940;52.126;-0.994;2022-10-26T04:54:00;99485.33;;;13.89;100.00
62948;BME280;51940;52.126;-0.994;2022-10-26T04:56:25;99492.21;;;13.84;100.00
62948;BME280;51940;52.126;-0.994;2022-10-26T04:58:54;99497.48;;;13.79;100.00
62948;BME280;51940;52.126;-0.994;2022-10-26T05:01:20;99501.65;;;13.75;100.00
62948;BME280;51940;52.126;-0.994;2022-10-26T05:03:49;99499.37;;;13.71;100.00
62948;BME280;51940;52.126;-0.994;2022-10-26T05:06:15;99502.98;;;13.67;100.00
62948;BME280;51940;52.126;-0.994;2022-10-26T05:08:40;99505.73;;;13.62;100.00
62948;BME280;51940;52.126;-0.994;2022-10-26T05:11:05;99510.58;;;13.58;100.00
62948;BME280;51940;52.126;-0.994;2022-10-26T05:13:31;99519.02;;;13.54;100.00
62948;BME280;51940;52.126;-0.994;2022-10-26T05:15:56;99524.89;;;13.51;100.00
62948;BME280;51940;52.126;-0.994;2022-10-26T05:18:22;99529.98;;;13.50;100.00
62948;BME280;51940;52.126;-0.994;2022-10-26T05:20:47;99532.71;;;13.49;100.00
62948;BME280;51940;52.126;-0.994;2022-10-26T05:23:14;99530.36;;;13.49;100.00
62948;BME280;51940;52.126;-0.994;2022-10-26T05:25:42;99529.81;;;13.49;100.00
62948;BME280;51940;52.126;-0.994;2022-10-26T05:28:09;99532.84;;;13.50;100.00
62948;BME280;51940;52.126;-0.994;2022-10-26T05:30:40;99539.25;;;13.51;100.00
62948;BME280;51940;52.126;-0.994;2022-10-26T05:33:08;99542.40;;;13.52;100.00
62948;BME280;51940;52.126;-0.994;2022-10-26T05:35:34;99534.79;;;13.54;100.00
62948;BME280;51940;52.126;-0.994;2022-10-26T05:38:05;99537.02;;;13.56;100.00
62948;BME280;51940;52.126;-0.994;2022-10-26T05:40:35;99543.02;;;13.58;100.00
62948;BME280;51940;52.126;-0.994;2022-10-26T05:43:01;99552.52;;;13.58;100.00
62948;BME280;51940;52.126;-0.994;2022-10-26T05:45:27;99553.91;;;13.59;100.00
62948;BME280;51940;52.126;-0.994;2022-10-26T05:47:53;99556.17;;;13.60;100.00
62948;BME280;51940;52.126;-0.994;2022-10-26T05:50:18;99552.40;;;13.61;100.00
62948;BME280;51940;52.126;-0.994;2022-10-26T05:52:45;99552.67;;;13.58;100.00
62948;BME280;51940;52.126;-0.994;2022-10-26T05:55:13;99550.56;;;13.54;100.00
62948;BME280;51940;52.126;-0.994;2022-10-26T05:57:39;99550.07;;;13.49;100.00
62948;BME280;51940;52.126;-0.994;2022-10-26T06:00:07;99545.14;;;13.44;100.00
62948;BME280;51940;52.126;-0.994;2022-10-26T06:05:18;99553.30;;;13.35;100.00
62948;BME280;51940;52.126;-0.994;2022-10-26T06:07:45;99557.77;;;13.31;100.00
62948;BME280;51940;52.126;-0.994;2022-10-26T06:10:11;99561.91;;;13.27;100.00
62948;BME280;51940;52.126;-0.994;2022-10-26T06:12:37;99560.64;;;13.24;100.00
62948;BME280;51940;52.126;-0.994;2022-10-26T06:15:04;99569.58;;;13.20;100.00
62948;BME280;51940;52.126;-0.994;2022-10-26T06:17:45;99575.95;;;13.18;100.00
62948;BME280;51940;52.126;-0.994;2022-10-26T06:25:35;99575.98;;;13.17;100.00
62948;BME280;51940;52.126;-0.994;2022-10-26T06:30:56;99579.77;;;13.24;100.00
62948;BME280;51940;52.126;-0.994;2022-10-26T06:33:23;99574.42;;;13.28;100.00
62948;BME280;51940;52.126;-0.994;2022-10-26T06:38:40;99574.33;;;13.34;100.00
62948;BME280;51940;52.126;-0.994;2022-10-26T06:41:10;99569.23;;;13.35;100.00
62948;BME280;51940;52.126;-0.994;2022-10-26T06:43:36;99571.36;;;13.36;100.00
62948;BME280;51940;52.126;-0.994;2022-10-26T06:49:09;99577.16;;;13.34;100.00
62948;BME280;51940;52.126;-0.994;2022-10-26T06:51:45;99575.63;;;13.32;100.00
62948;BME280;51940;52.126;-0.994;2022-10-26T06:56:44;99570.27;;;13.29;100.00
62948;BME280;51940;52.126;-0.994;2022-10-26T06:59:19;99581.92;;;13.28;100.00
62948;BME280;51940;52.126;-0.994;2022-10-26T07:01:48;99583.62;;;13.26;100.00
62948;BME280;51940;52.126;-0.994;2022-10-26T07:04:13;99583.45;;;13.26;100.00
62948;BME280;51940;52.126;-0.994;2022-10-26T07:06:39;99586.90;;;13.29;100.00
62948;BME280;51940;52.126;-0.994;2022-10-26T07:09:04;99586.88;;;13.33;100.00
62948;BME280;51940;52.126;-0.994;2022-10-26T07:11:30;99584.70;;;13.37;100.00
62948;BME280;51940;52.126;-0.994;2022-10-26T07:13:55;99592.38;;;13.41;100.00
62948;BME280;51940;52.126;-0.994;2022-10-26T07:16:21;99592.78;;;13.44;100.00
62948;BME280;51940;52.126;-0.994;2022-10-26T07:18:47;99593.31;;;13.48;100.00
62948;BME280;51940;52.126;-0.994;2022-10-26T07:21:12;99594.45;;;13.50;100.00
62948;BME280;51940;52.126;-0.994;2022-10-26T07:23:38;99587.97;;;13.54;100.00
62948;BME280;51940;52.126;-0.994;2022-10-26T07:26:03;99592.23;;;13.59;100.00
62948;BME280;51940;52.126;-0.994;2022-10-26T07:28:33;99592.42;;;13.63;100.00
62948;BME280;51940;52.126;-0.994;2022-10-26T07:31:00;99594.64;;;13.65;100.00
62948;BME280;51940;52.126;-0.994;2022-10-26T07:33:26;99594.50;;;13.68;100.00
62948;BME280;51940;52.126;-0.994;2022-10-26T07:35:51;99600.81;;;13.71;100.00
62948;BME280;51940;52.126;-0.994;2022-10-26T07:38:18;99605.52;;;13.73;100.00
62948;BME280;51940;52.126;-0.994;2022-10-26T07:40:43;99604.70;;;13.75;100.00
62948;BME280;51940;52.126;-0.994;2022-10-26T07:43:09;99607.17;;;13.79;100.00
62948;BME280;51940;52.126;-0.994;2022-10-26T07:45:34;99610.80;;;13.86;100.00
62948;BME280;51940;52.126;-0.994;2022-10-26T07:48:01;99606.84;;;13.93;100.00
62948;BME280;51940;52.126;-0.994;2022-10-26T07:50:26;99610.33;;;13.98;100.00
62948;BME280;51940;52.126;-0.994;2022-10-26T07:52:52;99615.59;;;14.05;100.00
62948;BME280;51940;52.126;-0.994;2022-10-26T07:55:17;99622.03;;;14.12;100.00
62948;BME280;51940;52.126;-0.994;2022-10-26T07:57:44;99623.70;;;14.18;100.00
62948;BME280;51940;52.126;-0.994;2022-10-26T08:00:10;99628.63;;;14.27;100.00
62948;BME280;51940;52.126;-0.994;2022-10-26T08:02:35;99635.55;;;14.35;100.00
62948;BME280;51940;52.126;-0.994;2022-10-26T08:05:02;99636.31;;;14.41;100.00
62948;BME280;51940;52.126;-0.994;2022-10-26T08:07:28;99633.23;;;14.46;100.00
62948;BME280;51940;52.126;-0.994;2022-10-26T08:09:53;99637.56;;;14.49;100.00
62948;BME280;51940;52.126;-0.994;2022-10-26T08:12:19;99637.22;;;14.52;100.00
62948;BME280;51940;52.126;-0.994;2022-10-26T08:14:45;99641.81;;;14.56;100.00
62948;BME280;51940;52.126;-0.994;2022-10-26T08:17:10;99639.71;;;14.66;100.00
62948;BME280;51940;52.126;-0.994;2022-10-26T08:19:36;99633.59;;;14.76;100.00
62948;BME280;51940;52.126;-0.994;2022-10-26T08:22:01;99630.86;;;14.87;100.00
62948;BME280;51940;52.126;-0.994;2022-10-26T08:24:28;99638.17;;;14.94;100.00
62948;BME280;51940;52.126;-0.994;2022-10-26T08:26:53;99633.73;;;14.97;100.00
62948;BME280;51940;52.126;-0.994;2022-10-26T08:29:18;99635.42;;;15.02;100.00
62948;BME280;51940;52.126;-0.994;2022-10-26T08:31:46;99641.64;;;15.07;100.00
62948;BME280;51940;52.126;-0.994;2022-10-26T08:34:11;99639.10;;;15.13;100.00
62948;BME280;51940;52.126;-0.994;2022-10-26T08:36:37;99656.39;;;15.19;100.00
62948;BME280;51940;52.126;-0.994;2022-10-26T08:39:03;99662.09;;;15.20;100.00
62948;BME280;51940;52.126;-0.994;2022-10-26T08:41:57;99663.08;;;15.22;100.00
62948;BME280;51940;52.126;-0.994;2022-10-26T08:44:46;99662.20;;;15.25;100.00
62948;BME280;51940;52.126;-0.994;2022-10-26T08:47:19;99668.98;;;15.35;100.00
62948;BME280;51940;52.126;-0.994;2022-10-26T08:50:02;99667.98;;;15.44;100.00
62948;BME280;51940;52.126;-0.994;2022-10-26T08:52:45;99673.16;;;15.51;100.00
62948;BME280;51940;52.126;-0.994;2022-10-26T08:55:18;99678.81;;;15.52;100.00
62948;BME280;51940;52.126;-0.994;2022-10-26T08:57:46;99681.42;;;15.53;100.00
62948;BME280;51940;52.126;-0.994;2022-10-26T09:00:17;99684.39;;;15.55;100.00
62948;BME280;51940;52.126;-0.994;2022-10-26T09:02:44;99683.40;;;15.60;100.00
62948;BME280;51940;52.126;-0.994;2022-10-26T09:05:15;99688.61;;;15.70;100.00
62948;BME280;51940;52.126;-0.994;2022-10-26T09:21:18;99692.61;;;16.07;100.00
62948;BME280;51940;52.126;-0.994;2022-10-26T09:24:14;99695.38;;;16.03;100.00
62948;BME280;51940;52.126;-0.994;2022-10-26T09:26:54;99697.05;;;16.12;100.00
62948;BME280;51940;52.126;-0.994;2022-10-26T09:29:29;99702.52;;;16.16;100.00
62948;BME280;51940;52.126;-0.994;2022-10-26T09:31:59;99706.77;;;16.18;100.00
62948;BME280;51940;52.126;-0.994;2022-10-26T09:34:33;99711.52;;;16.17;100.00
62948;BME280;51940;52.126;-0.994;2022-10-26T09:37:18;99717.64;;;16.13;100.00
62948;BME280;51940;52.126;-0.994;2022-10-26T09:40:39;99720.20;;;16.16;100.00
62948;BME280;51940;52.126;-0.994;2022-10-26T09:42:50;99722.11;;;16.20;100.00
62948;BME280;51940;52.126;-0.994;2022-10-26T09:45:33;99723.22;;;16.22;100.00
62948;BME280;51940;52.126;-0.994;2022-10-26T09:50:37;99731.04;;;16.24;100.00
62948;BME280;51940;52.126;-0.994;2022-10-26T09:53:03;99730.01;;;16.23;100.00
62948;BME280;51940;52.126;-0.994;2022-10-26T09:55:30;99737.60;;;16.19;100.00
62948;BME280;51940;52.126;-0.994;2022-10-26T09:58:02;99743.23;;;16.19;100.00
62948;BME280;51940;52.126;-0.994;2022-10-26T10:00:32;99749.81;;;16.20;100.00
62948;BME280;51940;52.126;-0.994;2022-10-26T10:02:59;99748.46;;;16.21;100.00
62948;BME280;51940;52.126;-0.994;2022-10-26T10:05:30;99750.94;;;16.22;100.00
62948;BME280;51940;52.126;-0.994;2022-10-26T10:08:25;99752.72;;;16.23;100.00
62948;BME280;51940;52.126;-0.994;2022-10-26T10:13:34;99756.11;;;16.26;100.00
62948;BME280;51940;52.126;-0.994;2022-10-26T10:16:13;99762.45;;;16.32;100.00
62948;BME280;51940;52.126;-0.994;2022-10-26T10:18:52;99764.10;;;16.37;100.00
62948;BME280;51940;52.126;-0.994;2022-10-26T10:21:18;99765.97;;;16.43;100.00
62948;BME280;51940;52.126;-0.994;2022-10-26T10:23:49;99770.05;;;16.47;100.00
62948;BME280;51940;52.126;-0.994;2022-10-26T10:26:18;99774.79;;;16.52;100.00
62948;BME280;51940;52.126;-0.994;2022-10-26T10:28:58;99781.55;;;16.56;100.00
62948;BME280;51940;52.126;-0.994;2022-10-26T10:31:29;99787.64;;;16.60;100.00
62948;BME280;51940;52.126;-0.994;2022-10-26T10:33:55;99788.67;;;16.67;100.00
62948;BME280;51940;52.126;-0.994;2022-10-26T10:36:23;99787.40;;;16.76;100.00
62948;BME280;51940;52.126;-0.994;2022-10-26T10:38:51;99789.13;;;16.86;100.00
62948;BME280;51940;52.126;-0.994;2022-10-26T10:44:28;99791.27;;;17.05;100.00
62948;BME280;51940;52.126;-0.994;2022-10-26T10:47:04;99797.48;;;17.16;100.00
62948;BME280;51940;52.126;-0.994;2022-10-26T10:49:30;99801.32;;;17.24;100.00
62948;BME280;51940;52.126;-0.994;2022-10-26T10:51:57;99807.89;;;17.28;100.00
62948;BME280;51940;52.126;-0.994;2022-10-26T10:54:29;99805.42;;;17.33;100.00
62948;BME280;51940;52.126;-0.994;2022-10-26T10:57:35;99816.80;;;17.36;100.00
62948;BME280;51940;52.126;-0.994;2022-10-26T11:00:05;99814.05;;;17.39;100.00
62948;BME280;51940;52.126;-0.994;2022-10-26T11:08:04;99840.21;;;17.45;100.00
62948;BME280;51940;52.126;-0.994;2022-10-26T11:10:38;99842.08;;;17.46;100.00
62948;BME280;51940;52.126;-0.994;2022-10-26T11:13:47;99843.95;;;17.45;100.00
62948;BME280;51940;52.126;-0.994;2022-10-26T11:16:11;99849.71;;;17.45;100.00
62948;BME280;51940;52.126;-0.994;2022-10-26T11:18:44;99853.26;;;17.56;100.00
62948;BME280;51940;52.126;-0.994;2022-10-26T11:23:46;99858.42;;;17.80;100.00
62948;BME280;51940;52.126;-0.994;2022-10-26T11:26:19;99862.84;;;17.90;100.00
62948;BME280;51940;52.126;-0.994;2022-10-26T11:31:42;99869.20;;;17.98;100.00
62948;BME280;51940;52.126;-0.994;2022-10-26T11:36:55;99877.14;;;17.81;100.00
62948;BME280;51940;52.126;-0.994;2022-10-26T11:42:26;99884.24;;;17.53;100.00
62948;BME280;51940;52.126;-0.994;2022-10-26T11:45:16;99896.63;;;17.39;100.00
62948;BME280;51940;52.126;-0.994;2022-10-26T11:48:23;99896.50;;;17.29;100.00
62948;BME280;51940;52.126;-0.994;2022-10-26T11:50:55;99902.09;;;17.20;100.00
62948;BME280;51940;52.126;-0.994;2022-10-26T11:53:35;99901.84;;;17.21;100.00
62948;BME280;51940;52.126;-0.994;2022-10-26T11:56:05;99905.38;;;17.23;100.00
62948;BME280;51940;52.126;-0.994;2022-10-26T11:58:37;99913.18;;;17.22;100.00
62948;BME280;51940;52.126;-0.994;2022-10-26T12:01:08;99914.43;;;17.25;100.00
62948;BME280;51940;52.126;-0.994;2022-10-26T12:03:45;99921.83;;;17.31;100.00
62948;BME280;51940;52.126;-0.994;2022-10-26T12:06:18;99925.65;;;17.36;100.00
62948;BME280;51940;52.126;-0.994;2022-10-26T12:09:05;99932.73;;;17.44;100.00
62948;BME280;51940;52.126;-0.994;2022-10-26T12:11:57;99934.02;;;17.47;100.00
62948;BME280;51940;52.126;-0.994;2022-10-26T12:14:45;99932.05;;;17.47;100.00
62948;BME280;51940;52.126;-0.994;2022-10-26T12:17:16;99939.77;;;17.47;100.00
62948;BME280;51940;52.126;-0.994;2022-10-26T12:22:47;99940.90;;;17.40;100.00
62948;BME280;51940;52.126;-0.994;2022-10-26T12:30:29;99949.34;;;17.56;100.00
62948;BME280;51940;52.126;-0.994;2022-10-26T12:32:58;99953.57;;;17.79;100.00
62948;BME280;51940;52.126;-0.994;2022-10-26T12:35:38;99957.48;;;17.86;100.00
62948;BME280;51940;52.126;-0.994;2022-10-26T12:48:44;99963.81;;;18.00;100.00
62948;BME280;51940;52.126;-0.994;2022-10-26T13:02:01;99969.48;;;18.05;99.96
62948;BME280;51940;52.126;-0.994;2022-10-26T13:07:22;99983.30;;;17.94;99.85
62948;BME280;51940;52.126;-0.994;2022-10-26T13:10:20;99977.03;;;17.88;100.00
62948;BME280;51940;52.126;-0.994;2022-10-26T13:12:51;99985.20;;;17.84;100.00
62948;BME280;51940;52.126;-0.994;2022-10-26T13:15:23;99984.98;;;17.79;100.00
62948;BME280;51940;52.126;-0.994;2022-10-26T13:18:09;99979.46;;;17.78;100.00
62948;BME280;51940;52.126;-0.994;2022-10-26T13:20:36;99973.25;;;17.70;100.00
62948;BME280;51940;52.126;-0.994;2022-10-26T13:23:23;99975.50;;;17.59;100.00
62948;BME280;51940;52.126;-0.994;2022-10-26T13:31:03;99977.23;;;17.54;100.00
62948;BME280;51940;52.126;-0.994;2022-10-26T13:33:40;99974.75;;;17.54;100.00
62948;BME280;51940;52.126;-0.994;2022-10-26T13:36:18;99982.00;;;17.49;100.00
62948;BME280;51940;52.126;-0.994;2022-10-26T13:38:46;99981.23;;;17.47;100.00
62948;BME280;51940;52.126;-0.994;2022-10-26T13:41:29;99983.35;;;17.48;100.00
62948;BME280;51940;52.126;-0.994;2022-10-26T13:43:57;99994.70;;;17.51;100.00
62948;BME280;51940;52.126;-0.994;2022-10-26T13:46:26;99993.42;;;17.55;100.00
62948;BME280;51940;52.126;-0.994;2022-10-26T13:48:53;99990.33;;;17.56;100.00
62948;BME280;51940;52.126;-0.994;2022-10-26T13:51:26;100003.89;;;17.55;100.00
62948;BME280;51940;52.126;-0.994;2022-10-26T13:54:02;100003.94;;;17.51;100.00
62948;BME280;51940;52.126;-0.994;2022-10-26T13:56:33;100008.93;;;17.45;100.00
62948;BME280;51940;52.126;-0.994;2022-10-26T13:59:10;100009.85;;;17.42;100.00
62948;BME280;51940;52.126;-0.994;2022-10-26T14:01:40;100011.02;;;17.44;100.00
62948;BME280;51940;52.126;-0.994;2022-10-26T14:04:16;100014.33;;;17.46;100.00
62948;BME280;51940;52.126;-0.994;2022-10-26T14:06:55;100012.59;;;17.41;100.00
62948;BME280;51940;52.126;-0.994;2022-10-26T14:09:21;100020.65;;;17.36;100.00
62948;BME280;51940;52.126;-0.994;2022-10-26T14:11:58;100025.17;;;17.33;100.00
62948;BME280;51940;52.126;-0.994;2022-10-26T14:14:28;100030.48;;;17.29;100.00
62948;BME280;51940;52.126;-0.994;2022-10-26T14:16:55;100028.66;;;17.26;100.00
62948;BME280;51940;52.126;-0.994;2022-10-26T14:19:35;100030.40;;;17.23;100.00
62948;BME280;51940;52.126;-0.994;2022-10-26T14:22:02;100029.27;;;17.22;100.00
62948;BME280;51940;52.126;-0.994;2022-10-26T14:24:30;100030.80;;;17.20;100.00
62948;BME280;51940;52.126;-0.994;2022-10-26T14:26:57;100037.83;;;17.16;100.00
62948;BME280;51940;52.126;-0.994;2022-10-26T14:29:26;100044.30;;;17.14;100.00
62948;BME280;51940;52.126;-0.994;2022-10-26T14:31:52;100043.83;;;17.13;100.00
62948;BME280;51940;52.126;-0.994;2022-10-26T14:34:19;100049.66;;;17.12;100.00
62948;BME280;51940;52.126;-0.994;2022-10-26T14:37:00;100056.38;;;17.07;100.00
62948;BME280;51940;52.126;-0.994;2022-10-26T14:39:36;100059.26;;;17.01;100.00
62948;BME280;51940;52.126;-0.994;2022-10-26T14:42:28;100062.63;;;16.99;100.00
62948;BME280;51940;52.126;-0.994;2022-10-26T14:44:56;100068.76;;;16.95;100.00
62948;BME280;51940;52.126;-0.994;2022-10-26T14:47:26;100069.91;;;16.95;100.00
62948;BME280;51940;52.126;-0.994;2022-10-26T14:49:52;100070.33;;;16.94;100.00
62948;BME280;51940;52.126;-0.994;2022-10-26T14:52:23;100074.89;;;16.93;99.90
62948;BME280;51940;52.126;-0.994;2022-10-26T14:57:34;100081.36;;;16.89;99.66
62948;BME280;51940;52.126;-0.994;2022-10-26T15:00:25;100084.38;;;16.86;99.93
62948;BME280;51940;52.126;-0.994;2022-10-26T15:02:54;100087.71;;;16.88;100.00
62948;BME280;51940;52.126;-0.994;2022-10-26T15:07:52;100085.39;;;16.84;99.14